Overview Statistics Trail Chart Weather Telemetry Raw packets
 

This is the latest recevied weather packets stored in our database for station/object HECA. If no packets are shown the sender has not sent any weather packets the latest 10 day(s).

<< 18 19 20 21 22 23 24 >>
Time Temp. Humidity Pressure Rain* Wind** Luminosity Snow
1788172401 31.67° C 38% 1010 hPa - - - -
1788171802 30.56° C 40% 1010 hPa - - - -
1788171198 30.56° C 40% 1010 hPa - - - -
1788170602 30.56° C 40% 1010 hPa - - - -
1788170002 30.56° C 40% 1011 hPa - - - -
1788169402 30.56° C 40% 1011 hPa - - - -
1788168800 30° C 45% 1011 hPa - - - -
1788168203 30° C 45% 1011 hPa - - - -
1788167604 30° C 45% 1011 hPa - - - -
1788167003 30° C 45% 1011 hPa - - - -
1788166406 30° C 45% 1011 hPa - - - -
1788165803 30° C 45% 1011 hPa - - - -
1788165201 30° C 45% 1011 hPa - - - -
1788164604 27.78° C 54% 1011 hPa - - - -
1788163999 27.78° C 54% 1011 hPa - - - -
1788163402 27.78° C 54% 1011 hPa - - - -
1788162804 27.78° C 58% 1011 hPa - - - -
1788162204 27.78° C 58% 1011 hPa - - - -
1788161602 27.78° C 58% 1011 hPa - - - -
1788161001 26.67° C 61% 1011 hPa - - - -
1788160404 26.67° C 61% 1011 hPa - - - -
1788159802 26.67° C 61% 1011 hPa - - - -
1788159199 26.67° C 61% 1011 hPa - - - -
1788158603 26.67° C 61% 1011 hPa - - - -
1788158004 25° C 73% 1011 hPa - - - -

* Rain since midnight (hover to see other rain measurements)
** Current wind speed in m/s (hover to see current wind gust speed)